createdAt,value
2022-11-12T00:00:50.660Z,25.25
2022-11-12T00:03:17.430Z,18.40
2022-11-12T00:05:45.310Z,24.23
2022-11-12T00:08:12.153Z,23.38
2022-11-12T00:10:39.190Z,20.25
2022-11-12T00:13:05.944Z,23.15
2022-11-12T00:15:32.846Z,22.70
2022-11-12T00:17:59.543Z,24.85
2022-11-12T00:20:26.383Z,18.98
2022-11-12T00:22:53.074Z,20.42
2022-11-12T00:25:19.749Z,17.60
2022-11-12T00:27:46.451Z,21.55
2022-11-12T00:30:13.459Z,16.90
2022-11-12T00:32:40.175Z,16.92
2022-11-12T00:35:12.435Z,18.15
2022-11-12T00:37:40.401Z,17.33
2022-11-12T00:40:07.973Z,16.52
2022-11-12T00:42:34.767Z,18.10
2022-11-12T00:45:01.757Z,17.60
2022-11-12T00:47:28.422Z,19.90
2022-11-12T00:49:55.090Z,20.00
2022-11-12T00:52:22.000Z,23.42
2022-11-12T00:54:48.668Z,21.88
2022-11-12T00:57:15.351Z,15.43
2022-11-12T00:59:42.023Z,17.45
2022-11-12T01:02:08.769Z,16.13
2022-11-12T01:04:35.440Z,16.38
2022-11-12T01:07:02.182Z,12.30
2022-11-12T01:09:28.953Z,13.27
2022-11-12T01:11:55.601Z,12.43
2022-11-12T01:14:22.279Z,11.63
2022-11-12T01:16:48.933Z,14.10
2022-11-12T01:19:15.792Z,11.63
2022-11-12T01:21:44.149Z,11.80
2022-11-12T01:24:11.189Z,13.75
2022-11-12T01:26:38.384Z,13.05
2022-11-12T01:29:05.897Z,15.57
2022-11-12T01:31:35.256Z,10.45
2022-11-12T01:34:07.625Z,15.43
2022-11-12T01:36:37.067Z,11.48
2022-11-12T01:39:05.249Z,12.85
2022-11-12T01:41:34.688Z,9.00
2022-11-12T01:44:17.016Z,10.65
2022-11-12T01:46:58.699Z,12.30
2022-11-12T01:49:56.204Z,9.23
2022-11-12T01:52:37.189Z,14.52
2022-11-12T01:55:25.991Z,9.88
2022-11-12T01:58:04.878Z,9.27
2022-11-12T02:00:31.606Z,9.43
2022-11-12T02:03:01.321Z,7.05
2022-11-12T02:05:30.730Z,7.72
2022-11-12T02:08:00.480Z,11.85
2022-11-12T02:10:28.036Z,7.93
2022-11-12T02:12:54.845Z,8.70
2022-11-12T02:15:21.497Z,9.60
2022-11-12T02:17:48.845Z,6.93
2022-11-12T02:20:16.357Z,10.25
2022-11-12T02:22:43.051Z,11.93
2022-11-12T02:25:14.191Z,9.18
2022-11-12T02:27:42.394Z,10.73
2022-11-12T02:30:09.444Z,7.90
2022-11-12T02:32:36.133Z,10.18
2022-11-12T02:35:02.960Z,10.07
2022-11-12T02:37:29.692Z,8.07
2022-11-12T02:39:56.369Z,11.52
2022-11-12T02:42:25.553Z,7.72
2022-11-12T02:44:52.591Z,9.07
2022-11-12T02:47:19.208Z,10.52
2022-11-12T02:49:45.863Z,12.88
2022-11-12T02:52:12.491Z,10.88
2022-11-12T02:54:39.718Z,10.55
2022-11-12T02:57:06.481Z,7.85
2022-11-12T02:59:33.158Z,6.93
2022-11-12T03:01:59.801Z,8.98
2022-11-12T03:04:26.430Z,8.45
2022-11-12T03:06:53.091Z,10.48
2022-11-12T03:09:19.791Z,9.10
2022-11-12T03:11:46.484Z,12.43
2022-11-12T03:14:13.232Z,8.57
2022-11-12T03:16:39.899Z,9.13
2022-11-12T03:19:08.629Z,8.07
2022-11-12T03:21:35.246Z,9.30
2022-11-12T03:24:02.145Z,11.13
2022-11-12T03:26:34.522Z,8.05
2022-11-12T03:29:02.523Z,8.00
2022-11-12T03:31:29.229Z,8.63
2022-11-12T03:33:55.953Z,12.15
2022-11-12T03:36:22.668Z,10.10
2022-11-12T03:38:49.331Z,10.60
2022-11-12T03:41:15.996Z,9.07
2022-11-12T03:43:42.616Z,11.07
2022-11-12T03:46:09.280Z,14.18
2022-11-12T03:48:35.946Z,12.63
2022-11-12T03:51:02.640Z,12.82
2022-11-12T03:53:29.463Z,12.30
2022-11-12T03:55:56.199Z,13.43
2022-11-12T03:58:23.058Z,12.95
2022-11-12T04:00:49.994Z,11.52
2022-11-12T04:03:16.759Z,13.65
2022-11-12T04:05:43.410Z,13.75
2022-11-12T04:08:16.177Z,15.07
2022-11-12T04:10:42.965Z,13.55
2022-11-12T04:13:09.757Z,13.00
2022-11-12T04:15:38.985Z,13.00
2022-11-12T04:18:07.952Z,13.98
2022-11-12T04:20:34.704Z,15.68
2022-11-12T04:23:01.461Z,11.93
2022-11-12T04:25:28.169Z,12.70
2022-11-12T04:27:57.498Z,15.35
2022-11-12T04:30:24.252Z,15.98
2022-11-12T04:32:55.013Z,15.88
2022-11-12T04:35:24.090Z,10.95
2022-11-12T04:37:51.239Z,13.48
2022-11-12T04:40:23.549Z,13.73
2022-11-12T04:42:50.179Z,15.77
2022-11-12T04:45:16.940Z,12.15
2022-11-12T04:47:43.622Z,18.63
2022-11-12T04:50:18.012Z,15.02
2022-11-12T04:52:44.844Z,13.45
2022-11-12T04:55:11.860Z,15.55
2022-11-12T04:57:38.909Z,15.35
2022-11-12T05:00:06.386Z,14.90
2022-11-12T05:02:33.040Z,16.50
2022-11-12T05:04:59.698Z,14.00
2022-11-12T05:07:26.380Z,13.38
2022-11-12T05:09:53.035Z,16.27
2022-11-12T05:12:19.683Z,14.63
2022-11-12T05:14:46.379Z,15.75
2022-11-12T05:17:13.032Z,13.07
2022-11-12T05:19:40.206Z,12.27
2022-11-12T05:22:07.344Z,16.45
2022-11-12T05:24:42.352Z,14.18
2022-11-12T05:27:19.296Z,18.40
2022-11-12T05:29:46.493Z,15.57
2022-11-12T05:32:15.676Z,14.85
2022-11-12T05:34:42.678Z,14.18
2022-11-12T05:37:11.368Z,16.90
2022-11-12T05:39:38.251Z,17.65
2022-11-12T05:42:12.913Z,16.85
2022-11-12T05:44:40.456Z,13.38
2022-11-12T05:47:07.239Z,16.15
2022-11-12T05:49:33.870Z,15.68
2022-11-12T05:52:00.555Z,17.38
2022-11-12T05:54:27.246Z,14.05
2022-11-12T05:56:53.915Z,18.60
2022-11-12T05:59:20.622Z,13.95
2022-11-12T06:01:47.354Z,14.52
2022-11-12T06:04:16.727Z,17.05
2022-11-12T06:06:44.376Z,15.77
2022-11-12T06:09:11.565Z,17.67
2022-11-12T06:11:39.247Z,15.05
2022-11-12T06:14:06.311Z,18.05
2022-11-12T06:16:33.105Z,20.55
2022-11-12T06:18:59.899Z,17.58
2022-11-12T06:21:26.716Z,16.30
2022-11-12T06:23:58.722Z,17.17
2022-11-12T06:26:27.710Z,17.50
2022-11-12T06:28:54.755Z,20.30
2022-11-12T06:31:22.167Z,15.52
2022-11-12T06:33:48.880Z,15.77
2022-11-12T06:36:17.496Z,18.65
2022-11-12T06:38:44.401Z,16.00
2022-11-12T06:41:12.304Z,18.98
2022-11-12T06:43:39.785Z,16.08
2022-11-12T06:46:13.709Z,14.98
2022-11-12T06:48:40.980Z,13.23
2022-11-12T06:51:16.052Z,18.20
2022-11-12T06:53:42.869Z,16.15
2022-11-12T06:56:09.595Z,18.92
2022-11-12T06:58:36.344Z,22.88
2022-11-12T07:01:14.860Z,18.17
2022-11-12T07:03:43.047Z,14.98
2022-11-12T07:06:15.395Z,16.02
2022-11-12T07:08:42.180Z,18.25
2022-11-12T07:11:09.288Z,17.13
2022-11-12T07:13:36.869Z,14.65
2022-11-12T07:16:05.957Z,15.40
2022-11-12T07:18:33.969Z,20.52
2022-11-12T07:21:10.450Z,20.00
2022-11-12T07:23:37.709Z,18.67
2022-11-12T07:26:07.163Z,23.25
2022-11-12T07:28:34.505Z,16.38
2022-11-12T07:31:04.063Z,20.75
2022-11-12T07:33:31.842Z,16.92
2022-11-12T07:36:06.312Z,17.52
2022-11-12T07:38:35.542Z,22.02
2022-11-12T07:41:22.683Z,15.88
2022-11-12T07:43:52.300Z,18.48
2022-11-12T07:46:26.097Z,19.45
2022-11-12T07:49:00.756Z,18.77
2022-11-12T07:51:31.213Z,19.63
2022-11-12T07:54:04.908Z,19.25
2022-11-12T07:56:31.739Z,15.68
2022-11-12T07:58:58.468Z,17.38
2022-11-12T08:01:40.384Z,21.63
2022-11-12T08:04:16.339Z,19.80
2022-11-12T08:06:43.237Z,22.00
2022-11-12T08:09:10.091Z,20.40
2022-11-12T08:11:36.804Z,21.88
2022-11-12T08:14:05.817Z,23.23
2022-11-12T08:16:41.674Z,25.05
2022-11-12T08:19:08.404Z,21.35
2022-11-12T08:21:51.874Z,21.08
2022-11-12T08:24:21.633Z,21.30
2022-11-12T08:26:51.347Z,21.67
2022-11-12T08:29:21.620Z,30.10
2022-11-12T08:31:57.203Z,20.73
2022-11-12T08:34:26.903Z,23.92
2022-11-12T08:37:09.914Z,18.23
2022-11-12T08:39:36.808Z,20.52
2022-11-12T08:42:05.136Z,18.73
2022-11-12T08:44:31.916Z,23.58
2022-11-12T08:46:58.850Z,22.35
2022-11-12T08:49:29.173Z,22.45
2022-11-12T08:51:56.181Z,22.95
2022-11-12T08:54:23.021Z,18.80
2022-11-12T08:56:49.693Z,20.55
2022-11-12T08:59:16.510Z,24.67
2022-11-12T09:01:46.377Z,21.25
2022-11-12T09:04:13.199Z,21.52
2022-11-12T09:06:40.062Z,20.42
2022-11-12T09:09:06.904Z,26.33
2022-11-12T09:11:33.593Z,20.23
2022-11-12T09:14:00.318Z,23.45
2022-11-12T09:16:27.063Z,24.92
2022-11-12T09:18:53.866Z,28.65
2022-11-12T09:21:20.581Z,30.02
2022-11-12T09:23:47.342Z,28.08
2022-11-12T09:26:13.990Z,29.13
2022-11-12T09:28:40.647Z,25.42
2022-11-12T09:31:08.447Z,24.67
2022-11-12T09:33:35.295Z,26.77
2022-11-12T09:36:03.358Z,24.52
2022-11-12T09:38:30.846Z,25.40
2022-11-12T09:41:19.009Z,24.98
2022-11-12T09:43:53.861Z,28.85
2022-11-12T09:46:35.608Z,30.83
2022-11-12T09:49:18.006Z,29.02
2022-11-12T09:51:55.841Z,29.50
2022-11-12T09:54:28.092Z,28.63
2022-11-12T09:56:55.060Z,31.65
2022-11-12T09:59:23.864Z,22.98
2022-11-12T10:02:12.648Z,28.35
2022-11-12T10:05:02.548Z,25.85
2022-11-12T10:07:35.258Z,32.10
2022-11-12T10:10:19.868Z,29.08
2022-11-12T10:12:55.504Z,30.45
2022-11-12T10:15:48.071Z,29.73
2022-11-12T10:19:01.223Z,27.30
2022-11-12T10:21:27.875Z,30.17
2022-11-12T10:23:54.610Z,24.58
2022-11-12T10:26:24.626Z,28.27
2022-11-12T10:29:03.349Z,29.70
2022-11-12T10:31:30.298Z,27.70
2022-11-12T10:34:19.391Z,25.90
2022-11-12T10:36:53.882Z,30.05
2022-11-12T10:39:32.508Z,27.48
2022-11-12T10:42:20.530Z,27.60
2022-11-12T10:44:47.830Z,29.48
2022-11-12T10:47:37.762Z,25.40
2022-11-12T10:50:13.523Z,27.50
2022-11-12T10:55:19.064Z,24.33
2022-11-12T10:57:45.752Z,25.20
2022-11-12T11:00:12.408Z,23.95
2022-11-12T11:02:54.813Z,26.17
2022-11-12T11:05:38.021Z,21.13
2022-11-12T11:08:05.757Z,21.48
2022-11-12T11:10:36.069Z,22.30
2022-11-12T11:13:21.287Z,21.85
2022-11-12T11:16:10.545Z,21.38
2022-11-12T11:18:40.971Z,18.30
2022-11-12T11:21:41.847Z,24.75
2022-11-12T11:24:27.954Z,23.20
2022-11-12T11:27:17.540Z,18.83
2022-11-12T11:29:53.242Z,20.90
2022-11-12T11:35:13.590Z,18.13
2022-11-12T11:38:05.469Z,20.60
2022-11-12T11:40:38.022Z,21.65
2022-11-12T11:43:23.529Z,23.05
2022-11-12T11:46:57.848Z,25.75
2022-11-12T11:49:42.673Z,20.63
2022-11-12T11:52:14.776Z,21.30
2022-11-12T11:55:04.617Z,22.90
2022-11-12T11:57:58.747Z,21.10
2022-11-12T12:00:40.069Z,18.38
2022-11-12T12:03:50.142Z,19.25
2022-11-12T12:06:24.330Z,16.90
2022-11-12T12:09:15.731Z,21.05
2022-11-12T12:12:17.758Z,20.27
2022-11-12T12:15:09.721Z,18.73
2022-11-12T12:17:42.508Z,18.83
2022-11-12T12:20:29.422Z,18.08
2022-11-12T12:23:23.544Z,18.48
2022-11-12T12:25:57.407Z,21.40
2022-11-12T12:28:33.099Z,28.92
2022-11-12T12:31:05.655Z,17.33
2022-11-12T12:33:43.550Z,20.25
2022-11-12T12:36:15.598Z,24.15
2022-11-12T12:39:05.078Z,19.50
2022-11-12T12:41:39.380Z,19.45
2022-11-12T12:44:10.550Z,23.83
2022-11-12T12:46:47.958Z,24.25
2022-11-12T12:49:18.970Z,20.38
2022-11-12T12:51:45.862Z,20.75
2022-11-12T12:54:52.803Z,22.10
2022-11-12T12:57:30.465Z,25.90
2022-11-12T13:00:39.635Z,21.67
2022-11-12T13:03:09.766Z,20.42
2022-11-12T13:05:38.202Z,23.75
2022-11-12T13:08:18.715Z,24.52
2022-11-12T13:10:50.455Z,20.67
2022-11-12T13:13:25.325Z,23.55
2022-11-12T13:15:58.955Z,24.83
2022-11-12T13:18:37.944Z,23.13
2022-11-12T13:21:14.088Z,19.23
2022-11-12T13:23:55.459Z,25.58
2022-11-12T13:26:51.562Z,25.02
2022-11-12T13:29:39.311Z,24.40
2022-11-12T13:32:32.487Z,16.92
2022-11-12T13:35:17.111Z,27.35
2022-11-12T13:38:08.979Z,32.15
2022-11-12T13:40:38.706Z,22.63
2022-11-12T13:43:36.328Z,19.23
2022-11-12T13:46:20.868Z,19.98
2022-11-12T13:49:15.050Z,25.17
2022-11-12T13:51:46.991Z,21.63
2022-11-12T13:54:36.061Z,25.90
2022-11-12T13:57:21.289Z,23.50
2022-11-12T13:59:48.097Z,19.50
2022-11-12T14:02:25.162Z,24.23
2022-11-12T14:04:55.917Z,25.02
2022-11-12T14:07:37.821Z,24.40
2022-11-12T14:10:48.632Z,26.05
2022-11-12T14:13:35.273Z,25.92
2022-11-12T14:16:16.990Z,26.77
2022-11-12T14:19:02.350Z,23.95
2022-11-12T14:21:30.173Z,24.20
2022-11-12T14:23:57.118Z,23.83
2022-11-12T14:26:34.353Z,25.25
2022-11-12T14:29:01.124Z,23.10
2022-11-12T14:31:28.114Z,22.60
2022-11-12T14:33:54.889Z,25.80
2022-11-12T14:36:22.406Z,26.55
2022-11-12T14:38:55.175Z,23.25
2022-11-12T14:41:30.440Z,25.55
2022-11-12T14:44:12.160Z,24.92
2022-11-12T14:46:44.147Z,30.30
2022-11-12T14:49:32.260Z,28.83
2022-11-12T14:52:12.607Z,27.20
2022-11-12T14:54:56.645Z,33.20
2022-11-12T14:57:31.672Z,27.13
2022-11-12T14:59:58.481Z,33.95
2022-11-12T15:02:41.652Z,29.38
2022-11-12T15:05:18.006Z,32.83
2022-11-12T15:08:04.927Z,30.40
2022-11-12T15:10:43.457Z,25.17
2022-11-12T15:13:17.589Z,30.80
2022-11-12T15:15:54.399Z,28.35
2022-11-12T15:18:25.702Z,28.10
2022-11-12T15:21:14.958Z,32.90
2022-11-12T15:24:07.138Z,30.23
2022-11-12T15:26:42.888Z,32.97
2022-11-12T15:32:01.538Z,32.70
2022-11-12T15:34:33.271Z,38.15
2022-11-12T15:37:19.846Z,26.00
2022-11-12T15:39:51.455Z,27.70
2022-11-12T15:42:38.483Z,29.00
2022-11-12T15:45:14.604Z,28.67
2022-11-12T15:47:41.454Z,26.65
2022-11-12T15:50:15.833Z,28.40
2022-11-12T15:52:42.770Z,27.95
2022-11-12T15:55:11.604Z,30.15
2022-11-12T15:57:50.637Z,35.33
2022-11-12T16:00:20.315Z,29.65
2022-11-12T16:02:56.815Z,31.67
2022-11-12T16:05:23.550Z,30.90
2022-11-12T16:07:50.336Z,27.00
2022-11-12T16:10:18.713Z,27.77
2022-11-12T16:12:46.841Z,34.13
2022-11-12T16:15:22.561Z,36.00
2022-11-12T16:20:24.951Z,36.97
2022-11-12T16:22:52.713Z,28.67
2022-11-12T16:25:20.697Z,34.10
2022-11-12T16:27:52.846Z,33.15
2022-11-12T16:30:24.443Z,39.17
2022-11-12T16:32:51.647Z,36.65
2022-11-12T16:35:18.369Z,32.08
2022-11-12T16:37:46.721Z,35.03
2022-11-12T16:40:18.890Z,37.90
2022-11-12T16:42:45.553Z,35.55
2022-11-12T16:45:20.169Z,36.30
2022-11-12T16:47:55.406Z,37.08
2022-11-12T16:50:27.087Z,31.10
2022-11-12T16:52:54.418Z,40.55
2022-11-12T16:55:21.475Z,33.40
2022-11-12T16:57:48.202Z,37.05
2022-11-12T17:00:17.160Z,35.63
2022-11-12T17:02:48.186Z,31.85
2022-11-12T17:05:25.086Z,35.83
2022-11-12T17:07:56.845Z,38.30
2022-11-12T17:10:23.969Z,36.40
2022-11-12T17:12:51.678Z,45.22
2022-11-12T17:15:18.540Z,38.03
2022-11-12T17:17:45.244Z,40.08
2022-11-12T17:20:11.938Z,36.28
2022-11-12T17:22:38.650Z,36.47
2022-11-12T17:25:06.402Z,40.05
2022-11-12T17:27:33.159Z,33.88
2022-11-12T17:29:59.869Z,38.08
2022-11-12T17:32:26.939Z,44.65
2022-11-12T17:34:53.772Z,43.28
2022-11-12T17:37:20.440Z,43.92
2022-11-12T17:39:47.141Z,42.42
2022-11-12T17:42:13.805Z,45.45
2022-11-12T17:44:40.452Z,41.88
2022-11-12T17:47:07.145Z,38.30
2022-11-12T17:49:33.909Z,49.28
2022-11-12T17:52:00.597Z,41.13
2022-11-12T17:54:27.251Z,39.50
2022-11-12T17:56:53.927Z,38.10
2022-11-12T17:59:20.578Z,42.42
2022-11-12T18:01:47.342Z,40.38
2022-11-12T18:04:14.064Z,42.83
2022-11-12T18:06:40.824Z,39.60
2022-11-12T18:09:13.133Z,42.65
2022-11-12T18:11:46.387Z,45.53
2022-11-12T18:14:13.208Z,46.25
2022-11-12T18:16:40.028Z,47.47
2022-11-12T18:19:07.948Z,47.50
2022-11-12T18:21:34.625Z,53.83
2022-11-12T18:24:01.308Z,46.50
2022-11-12T18:26:28.068Z,45.42
2022-11-12T18:28:56.109Z,49.53
2022-11-12T18:31:23.897Z,51.92
2022-11-12T18:33:51.119Z,60.78
2022-11-12T18:36:20.348Z,53.13
2022-11-12T18:38:47.205Z,58.30
2022-11-12T18:41:16.505Z,60.45
2022-11-12T18:43:43.383Z,60.70
2022-11-12T18:46:10.720Z,55.08
2022-11-12T18:48:38.794Z,58.15
2022-11-12T18:51:09.791Z,61.75
2022-11-12T18:53:38.057Z,62.67
2022-11-12T18:56:11.010Z,61.03
2022-11-12T18:58:37.682Z,57.60
2022-11-12T19:01:06.230Z,59.60
2022-11-12T19:03:32.964Z,65.35
2022-11-12T19:06:01.051Z,69.40
2022-11-12T19:08:28.290Z,72.18
2022-11-12T19:10:58.528Z,67.55
2022-11-12T19:13:26.375Z,73.72
2022-11-12T19:15:53.516Z,76.90
2022-11-12T19:18:20.473Z,80.40
2022-11-12T19:20:47.836Z,70.82
2022-11-12T19:23:14.595Z,69.93
2022-11-12T19:25:41.313Z,65.78
2022-11-12T19:28:08.035Z,67.18
2022-11-12T19:30:34.708Z,72.53
2022-11-12T19:33:01.444Z,61.72
2022-11-12T19:35:28.139Z,58.00
2022-11-12T19:37:54.787Z,54.35
2022-11-12T19:40:21.443Z,59.25
2022-11-12T19:42:48.093Z,56.78
2022-11-12T19:45:14.812Z,57.78
2022-11-12T19:47:41.534Z,53.78
2022-11-12T19:50:08.513Z,55.30
2022-11-12T19:52:35.248Z,51.92
2022-11-12T19:55:02.090Z,48.67
2022-11-12T19:57:28.715Z,52.28
2022-11-12T19:59:55.360Z,52.13
2022-11-12T20:02:22.050Z,56.47
2022-11-12T20:04:48.675Z,57.83
2022-11-12T20:07:15.403Z,55.63
2022-11-12T20:09:42.303Z,48.65
2022-11-12T20:12:09.015Z,51.33
2022-11-12T20:14:35.749Z,56.67
2022-11-12T20:17:02.525Z,57.75
2022-11-12T20:19:29.291Z,53.13
2022-11-12T20:21:55.922Z,52.65
2022-11-12T20:24:22.586Z,52.78
2022-11-12T20:26:49.289Z,55.00
2022-11-12T20:29:15.953Z,59.92
2022-11-12T20:31:42.650Z,58.50
2022-11-12T20:34:11.355Z,56.70
2022-11-12T20:36:38.047Z,57.30
2022-11-12T20:39:04.996Z,59.20
2022-11-12T20:41:31.667Z,63.90
2022-11-12T20:43:59.376Z,62.03
2022-11-12T20:46:27.187Z,58.58
2022-11-12T20:48:54.189Z,62.38
2022-11-12T20:51:24.670Z,61.28
2022-11-12T20:53:59.410Z,62.65
2022-11-12T20:58:54.752Z,56.88
2022-11-12T21:01:23.117Z,53.15
2022-11-12T21:03:50.320Z,71.28
2022-11-12T21:06:19.759Z,57.00
2022-11-12T21:08:46.576Z,58.15
2022-11-12T21:11:15.868Z,60.33
2022-11-12T21:13:42.992Z,60.53
2022-11-12T21:16:11.107Z,56.88
2022-11-12T21:18:39.284Z,54.47
2022-11-12T21:21:17.716Z,56.80
2022-11-12T21:23:44.713Z,55.20
2022-11-12T21:26:15.527Z,53.00
2022-11-12T21:28:44.007Z,57.42
2022-11-12T21:31:14.035Z,48.00
2022-11-12T21:33:40.785Z,55.83
2022-11-12T21:36:13.205Z,55.95
2022-11-12T21:38:42.869Z,52.00
2022-11-12T21:41:12.088Z,48.85
2022-11-12T21:43:40.485Z,49.33
2022-11-12T21:46:14.840Z,46.35
2022-11-12T21:48:41.766Z,50.83
2022-11-12T21:51:10.941Z,46.47
2022-11-12T21:53:38.244Z,46.08
2022-11-12T21:56:07.681Z,44.75
2022-11-12T21:58:34.478Z,47.72
2022-11-12T22:01:28.673Z,42.70
2022-11-12T22:03:56.694Z,45.08
2022-11-12T22:06:25.572Z,47.83
2022-11-12T22:08:53.578Z,43.03
2022-11-12T22:11:21.019Z,45.33
2022-11-12T22:13:47.990Z,47.88
2022-11-12T22:16:23.705Z,46.17
2022-11-12T22:18:53.837Z,46.63
2022-11-12T22:21:23.272Z,49.25
2022-11-12T22:23:50.363Z,45.03
2022-11-12T22:26:22.975Z,46.20
2022-11-12T22:28:50.032Z,47.67
2022-11-12T22:31:22.479Z,47.50
2022-11-12T22:33:50.066Z,46.80
2022-11-12T22:36:19.378Z,42.13
2022-11-12T22:38:47.450Z,45.50
2022-11-12T22:41:28.903Z,44.92
2022-11-12T22:44:00.862Z,48.35
2022-11-12T22:46:33.691Z,46.97
2022-11-12T22:49:01.277Z,47.05
2022-11-12T22:51:30.164Z,50.15
2022-11-12T22:53:59.306Z,48.35
2022-11-12T22:56:27.181Z,46.65
2022-11-12T22:58:54.644Z,48.40
2022-11-12T23:01:47.871Z,45.53
2022-11-12T23:04:14.732Z,50.30
2022-11-12T23:06:41.575Z,47.03
2022-11-12T23:09:11.055Z,44.33
2022-11-12T23:11:37.704Z,43.92
2022-11-12T23:14:04.336Z,47.53
2022-11-12T23:16:31.058Z,48.03
2022-11-12T23:18:58.237Z,43.75
2022-11-12T23:21:28.199Z,48.08
2022-11-12T23:23:57.003Z,44.72
2022-11-12T23:26:26.090Z,44.60
2022-11-12T23:28:52.750Z,46.55
2022-11-12T23:31:27.748Z,40.17
2022-11-12T23:33:56.556Z,43.28
2022-11-12T23:36:25.298Z,49.65
2022-11-12T23:38:52.583Z,43.53
2022-11-12T23:41:22.449Z,44.33
2022-11-12T23:43:49.796Z,43.28
2022-11-12T23:46:16.673Z,42.53
2022-11-12T23:48:43.362Z,50.20
2022-11-12T23:51:12.503Z,43.80
2022-11-12T23:53:39.873Z,47.22
2022-11-12T23:56:09.242Z,54.65
2022-11-12T23:58:37.594Z,44.25
